Aviation Digital Data Service (ADDS)

Output produced by METARs form (0746 UTC 26 April 2018)
found at http://aviationweather.gov/adds/metars/
 
KMBS 260520Z 2606/2706 VRB04KT P6SM SKC 
     FM261000 27003KT 4SM BR SKC 
     FM261300 25005KT P6SM SKC